Data for 04/24/2014

Time Sea-Level Adjusted Pressure Absolute Pressure Temperature Relative Humidity Dew Point   
(mb) (inHg) (mb) (inHg) (C) (F) (%) (C) (F)
00:05 1013 29.91 842 24.86 5 41 39 -7.7 18.2
00:10 1013 29.91 843 24.89 5 41 41 -7.2 19
00:15 1013 29.91 843 24.89 4.9 40.8 42 -7 19.4
00:20 1013 29.91 843 24.89 4.8 40.7 42 -7 19.4
00:25 1013 29.91 843 24.89 4.7 40.5 43 -6.8 19.8
00:30 1013 29.91 843 24.89 4.7 40.4 43 -6.9 19.5
00:35 1013 29.91 843 24.89 4.6 40.3 42 -7.3 18.9
00:40 1013 29.91 843 24.89 4.6 40.4 43 -7 19.5
00:45 1013 29.91 843 24.89 4.6 40.3 41 -7.4 18.7
00:50 1013 29.91 843 24.89 4.8 40.6 39 -7.9 17.7
00:55 1013 29.91 843 24.89 5 40.9 39 -7.8 17.9
01:00 1013 29.91 843 24.89 5 41 39 -7.9 17.8
01:05 1013 29.91 843 24.89 5 41 40 -7.6 18.4
01:10 1013 29.91 843 24.89 4.9 40.9 38 -8.2 17.3
01:15 1013 29.91 843 24.89 5 41 37 -8.5 16.8
01:20 1013 29.91 843 24.89 5.1 41.2 37 -8.3 17.1
01:25 1014 29.94 843 24.89 5.1 41.2 37 -8.4 16.9
01:30 1014 29.94 843 24.89 5.1 41.2 37 -8.3 17.1
01:35 1014 29.94 843 24.89 5.2 41.3 36 -8.6 16.6
01:40 1014 29.94 843 24.89 5.2 41.3 37 -8.5 16.7
01:45 1014 29.94 843 24.89 5.2 41.3 37 -8.3 17
01:50 1014 29.94 843 24.89 5.2 41.3 36 -8.7 16.3
01:55 1014 29.94 843 24.89 5.3 41.5 35 -8.8 16.1
02:00 1014 29.94 843 24.89 5.3 41.5 36 -8.7 16.3
02:05 1014 29.94 843 24.89 5.2 41.4 36 -8.5 16.6
02:10 1014 29.94 843 24.89 5.2 41.3 36 -8.8 16.2
02:15 1014 29.94 843 24.89 5.3 41.6 34 -9.4 15.1
02:20 1013 29.91 843 24.89 5.5 41.9 34 -9.3 15.3
02:25 1013 29.91 843 24.89 5.5 41.9 34 -9.2 15.5
02:30 1013 29.91 843 24.89 5.5 41.8 34 -9 15.7
02:35 1013 29.91 843 24.89 5.5 41.9 33 -9.4 15.2
02:40 1013 29.91 843 24.89 5.6 42 34 -9.2 15.4
02:45 1013 29.91 843 24.89 5.6 42 33 -9.5 14.9
02:50 1013 29.91 843 24.89 5.6 42.1 34 -9.2 15.5
02:55 1013 29.91 843 24.89 5.5 42 33 -9.4 15
03:00 1013 29.91 843 24.89 5.6 42.1 33 -9.3 15.2
03:05 1014 29.94 843 24.89 5.6 42.1 34 -9.1 15.5
03:10 1014 29.94 843 24.89 5.6 42.1 34 -9.1 15.7
03:15 1014 29.94 843 24.89 5.5 42 34 -9 15.7
03:20 1014 29.94 843 24.89 5.6 42 34 -9 15.9
03:25 1014 29.94 843 24.89 5.6 42.1 36 -8.4 16.9
03:30 1014 29.94 843 24.89 5.5 41.9 37 -8.1 17.4
03:35 1014 29.94 843 24.89 5.3 41.6 39 -7.4 18.8
03:40 1014 29.94 843 24.89 4.9 40.8 42 -6.9 19.5
03:45 1014 29.94 843 24.89 4.7 40.4 42 -7.2 19
03:50 1014 29.94 843 24.89 4.6 40.2 41 -7.5 18.5
03:55 1014 29.94 843 24.89 4.6 40.2 43 -7 19.3
04:00 1014 29.94 843 24.89 4.5 40.1 42 -7.4 18.6
04:05 1014 29.94 843 24.89 4.7 40.4 41 -7.6 18.3
04:10 1014 29.94 843 24.89 4.8 40.6 41 -7.3 18.9
04:15 1014 29.94 843 24.89 4.7 40.5 42 -7 19.4
04:20 1014 29.94 843 24.89 4.7 40.4 42 -7.2 19
04:25 1014 29.94 843 24.89 4.8 40.6 41 -7.4 18.6
04:30 1014 29.94 843 24.89 4.8 40.7 41 -7.3 18.8
04:35 1014 29.94 843 24.89 4.8 40.7 41 -7.4 18.7
04:40 1014 29.94 843 24.89 4.9 40.7 40 -7.5 18.5
04:45 1014 29.94 843 24.89 5 40.9 39 -7.9 17.8
04:50 1014 29.94 843 24.89 4.9 40.9 41 -7.2 19
04:55 1014 29.94 843 24.89 4.8 40.7 42 -7.1 19.2
05:00 1014 29.94 843 24.89 4.7 40.5 43 -6.8 19.8
05:05 1014 29.94 843 24.89 4.7 40.4 43 -6.9 19.6
05:10 1014 29.94 843 24.89 4.7 40.4 43 -6.9 19.6
05:15 1014 29.94 843 24.89 4.7 40.5 43 -6.9 19.6
05:20 1014 29.94 843 24.89 4.7 40.5 42 -7.1 19.2
05:25 1014 29.94 843 24.89 4.8 40.6 42 -6.9 19.5
05:30 1014 29.94 843 24.89 4.7 40.4 48 -5.4 22.3
05:35 1014 29.94 843 24.89 4.1 39.3 52 -5 23
05:40 1014 29.94 843 24.89 3.8 38.8 52 -5.2 22.6
05:45 1014 29.94 843 24.89 3.8 38.8 51 -5.4 22.4
05:50 1014 29.94 843 24.89 3.8 38.8 51 -5.6 22
05:55 1014 29.94 843 24.89 3.9 39.1 50 -5.5 22.1
06:00 1014 29.94 843 24.89 4.2 39.5 47 -6.2 20.9
06:05 1014 29.94 843 24.89 4.4 40 48 -5.7 21.7
06:10 1014 29.94 843 24.89 4.4 39.9 47 -5.9 21.3
06:15 1014 29.94 843 24.89 4.5 40 47 -5.8 21.5
06:20 1014 29.94 843 24.89 4.5 40.1 47 -5.8 21.6
06:25 1014 29.94 843 24.89 4.6 40.3 47 -5.7 21.7
06:30 1014 29.94 843 24.89 4.8 40.6 45 -6.3 20.7
06:35 1013 29.91 843 24.89 5 41 46 -5.7 21.7
06:40 1013 29.91 843 24.89 5.1 41.2 45 -5.9 21.4
06:45 1013 29.91 843 24.89 5.3 41.5 44 -5.9 21.4
06:50 1013 29.91 843 24.89 5.4 41.8 43 -6.1 20.9
06:55 1013 29.91 843 24.89 5.6 42.1 43 -6.1 21.1
07:00 1013 29.91 843 24.89 5.7 42.3 42 -6.3 20.6
07:05 1013 29.91 843 24.89 6 42.9 40 -6.6 20.1
07:10 1013 29.91 843 24.89 6.5 43.6 37 -7.3 18.9
07:15 1013 29.91 843 24.89 6.7 44 36 -7.2 19.1
07:20 1013 29.91 842 24.86 6.8 44.2 34 -8.1 17.4
07:25 1013 29.91 842 24.86 7 44.5 34 -7.7 18.1
07:30 1013 29.91 842 24.86 7 44.6 35 -7.6 18.4
07:35 1013 29.91 842 24.86 7.3 45.2 35 -7.2 19
07:40 1013 29.91 842 24.86 7.3 45.2 35 -7.1 19.3
07:45 1013 29.91 842 24.86 7.3 45.1 36 -6.9 19.6
07:50 1013 29.91 842 24.86 7.4 45.4 33 -7.6 18.3
07:55 1013 29.91 842 24.86 7.6 45.7 34 -7.4 18.7
08:00 1013 29.91 842 24.86 7.6 45.7 33 -7.6 18.4
08:05 1013 29.91 842 24.86 7.7 45.8 33 -7.7 18.1
08:10 1013 29.91 842 24.86 7.9 46.2 32 -7.8 18
08:15 1013 29.91 842 24.86 8.1 46.6 32 -7.6 18.2
08:20 1013 29.91 842 24.86 8.3 47 31 -7.6 18.2
08:25 1013 29.91 842 24.86 8.3 46.9 32 -7.4 18.8
08:30 1013 29.91 842 24.86 8.4 47 32 -7.5 18.6
08:35 1013 29.91 842 24.86 8.1 46.6 32 -7.4 18.7
08:40 1013 29.91 842 24.86 8.2 46.8 33 -7.1 19.3
08:45 1013 29.91 842 24.86 8.3 47 33 -7.1 19.3
08:50 1013 29.91 842 24.86 8.2 46.8 33 -7.2 19.1
08:55 1013 29.91 842 24.86 8.2 46.8 32 -7.4 18.7
09:00 1013 29.91 842 24.86 8 46.4 33 -7.3 18.9
09:05 1013 29.91 842 24.86 8 46.4 34 -6.9 19.6
09:10 1013 29.91 842 24.86 8 46.3 33 -7.2 19.1
09:15 1013 29.91 842 24.86 8 46.3 32 -7.7 18.2
09:20 1013 29.91 842 24.86 7.9 46.2 34 -7.1 19.2
09:25 1013 29.91 842 24.86 7.9 46.2 34 -6.9 19.6
09:30 1013 29.91 842 24.86 7.9 46.2 32 -7.7 18.2
09:35 1013 29.91 842 24.86 7.8 46 35 -6.7 20
09:40 1013 29.91 842 24.86 7.8 46 34 -7.1 19.2
09:45 1013 29.91 842 24.86 7.7 45.9 35 -6.7 19.9
09:50 1013 29.91 842 24.86 7.8 46 35 -6.6 20.2
09:55 1013 29.91 842 24.86 7.7 45.9 33 -7.4 18.6
10:00 1013 29.91 842 24.86 7.8 46 34 -7.1 19.1
10:05 1013 29.91 842 24.86 7.8 46 36 -6.2 20.8
10:10 1013 29.91 842 24.86 7.8 46 34 -6.9 19.5
10:15 1013 29.91 842 24.86 7.8 46.1 35 -6.5 20.3
10:20 1013 29.91 842 24.86 7.7 45.9 37 -6.1 21
10:25 1013 29.91 842 24.86 7.8 46.1 36 -6.4 20.5
10:30 1013 29.91 842 24.86 7.8 46.1 37 -5.9 21.4
10:35 1013 29.91 842 24.86 7.9 46.2 38 -5.5 22.1
10:40 1013 29.91 842 24.86 8.1 46.5 38 -5.3 22.4
10:45 1013 29.91 842 24.86 8.1 46.6 39 -5.1 22.8
10:50 1013 29.91 842 24.86 8.2 46.7 39 -4.9 23.2
10:55 1013 29.91 842 24.86 8.3 46.9 38 -5.2 22.6
11:00 1013 29.91 842 24.86 8.2 46.7 39 -4.9 23.1
11:05 1013 29.91 842 24.86 8.1 46.5 40 -4.9 23.3
11:10 1013 29.91 842 24.86 7.9 46.3 41 -4.4 24.1
11:15 1013 29.91 842 24.86 7.9 46.3 42 -4.3 24.3
11:20 1013 29.91 842 24.86 7.9 46.1 42 -4.3 24.3
11:25 1013 29.91 842 24.86 7.8 46.1 43 -4 24.8
11:30 1013 29.91 842 24.86 7.8 46 45 -3.5 25.7
11:35 1013 29.91 842 24.86 7.5 45.5 46 -3.4 26
11:40 1013 29.91 842 24.86 7.4 45.4 50 -2.3 27.8
11:45 1013 29.91 842 24.86 7.2 44.9 48 -3 26.7
11:50 1012 29.88 842 24.86 7.4 45.4 45 -3.7 25.3
11:55 1012 29.88 842 24.86 7.8 46 45 -3.5 25.7
12:00 1012 29.88 842 24.86 7.8 46.1 45 -3.4 25.9
12:05 1012 29.88 842 24.86 7.9 46.1 45 -3.4 25.9
12:10 1012 29.88 842 24.86 8 46.4 45 -3.2 26.3
12:15 1012 29.88 842 24.86 8.1 46.6 46 -2.9 26.8
12:20 1012 29.88 842 24.86 8.3 46.9 44 -3.2 26.2
12:25 1012 29.88 842 24.86 8.3 46.9 45 -3 26.5
12:30 1012 29.88 841 24.83 8.6 47.5 44 -3 26.7
12:35 1012 29.88 841 24.83 8.9 48.1 43 -3.1 26.5
12:40 1012 29.88 841 24.83 9.2 48.5 42 -3.1 26.5
12:45 1012 29.88 841 24.83 9.3 48.7 42 -2.8 26.9
12:50 1012 29.88 841 24.83 8.9 48 45 -2.5 27.4
12:55 1012 29.88 841 24.83 8.6 47.5 44 -3 26.7
13:00 1012 29.88 841 24.83 8.4 47.2 45 -2.7 27.1
13:05 1012 29.88 841 24.83 8.5 47.3 44 -3 26.6
13:10 1012 29.88 841 24.83 8.7 47.6 44 -2.9 26.7
13:15 1012 29.88 841 24.83 8.7 47.7 44 -2.9 26.7
13:20 1012 29.88 841 24.83 8.6 47.6 45 -2.7 27.1
13:25 1012 29.88 841 24.83 8.7 47.6 44 -3 26.7
13:30 1012 29.88 841 24.83 8.8 47.8 44 -2.8 27
13:35 1012 29.88 841 24.83 8.7 47.6 45 -2.5 27.6
13:40 1012 29.88 842 24.86 8.9 48 45 -2.4 27.7
13:45 1012 29.88 842 24.86 9 48.3 44 -2.6 27.3
13:50 1012 29.88 842 24.86 9.4 48.9 44 -2.3 27.9
13:55 1012 29.88 841 24.83 9.3 48.7 43 -2.6 27.3
14:00 1012 29.88 841 24.83 9.3 48.8 43 -2.5 27.6
14:05 1012 29.88 841 24.83 9.6 49.2 41 -3 26.5
14:10 1012 29.88 841 24.83 9.7 49.5 42 -2.7 27.2
14:15 1012 29.88 841 24.83 10.1 50.2 40 -3 26.6
14:20 1012 29.88 841 24.83 10 50.1 40 -2.9 26.8
14:25 1012 29.88 841 24.83 9.8 49.7 41 -2.8 27
14:30 1012 29.88 841 24.83 9.5 49.2 42 -2.6 27.2
14:35 1012 29.88 841 24.83 9.5 49.2 41 -3.1 26.4
14:40 1012 29.88 841 24.83 9.5 49.1 41 -3 26.6
14:45 1012 29.88 841 24.83 9.8 49.7 40 -3 26.6
14:50 1012 29.88 841 24.83 10.2 50.4 39 -3.1 26.4
14:55 1012 29.88 841 24.83 10.2 50.4 39 -3.2 26.3
15:00 1012 29.88 841 24.83 10.5 50.9 37 -3.5 25.6
15:05 1012 29.88 841 24.83 10.5 50.8 38 -3.4 25.9
15:10 1011 29.85 841 24.83 10.3 50.6 38 -3.3 26.1
15:15 1011 29.85 841 24.83 10.3 50.5 38 -3.4 25.8
15:20 1011 29.85 841 24.83 10.3 50.6 37 -3.7 25.3
15:25 1011 29.85 841 24.83 10.4 50.6 38 -3.5 25.8
15:30 1011 29.85 841 24.83 10.2 50.4 38 -3.3 26.1
15:35 1011 29.85 841 24.83 10.1 50.2 39 -3.3 26.1
15:40 1011 29.85 841 24.83 10.1 50.2 39 -3.2 26.2
15:45 1011 29.85 841 24.83 10 50 39 -3.2 26.3
15:50 1011 29.85 841 24.83 10 50 39 -3.2 26.2
15:55 1011 29.85 841 24.83 10.1 50.1 39 -3.1 26.4
16:00 1011 29.85 841 24.83 10 50 41 -2.7 27.2
16:05 1011 29.85 841 24.83 10.1 50.1 42 -2.4 27.7
16:10 1011 29.85 841 24.83 10 50.1 43 -2.1 28.3
16:15 1011 29.85 841 24.83 9.9 49.9 42 -2.2 28
16:20 1012 29.88 841 24.83 10 49.9 43 -2 28.5
16:25 1012 29.88 841 24.83 10.3 50.6 40 -2.7 27.2
16:30 1012 29.88 841 24.83 10.8 51.4 40 -2.4 27.8
16:35 1012 29.88 841 24.83 10.8 51.4 40 -2.3 27.8
16:40 1012 29.88 841 24.83 10.8 51.4 41 -1.9 28.7
16:45 1012 29.88 841 24.83 10.7 51.2 39 -2.6 27.2
16:50 1012 29.88 841 24.83 10.9 51.7 40 -2 28.4
16:55 1012 29.88 841 24.83 11.1 52 41 -1.7 28.9
17:00 1012 29.88 841 24.83 10.9 51.5 41 -1.9 28.6
17:05 1012 29.88 841 24.83 10.6 51.1 41 -2.1 28.2
17:10 1012 29.88 841 24.83 10.6 51 40 -2.4 27.8
17:15 1012 29.88 841 24.83 10.6 51.2 41 -1.9 28.6
17:20 1012 29.88 841 24.83 10.8 51.5 41 -1.9 28.7
17:25 1012 29.88 841 24.83 10.6 51.1 41 -1.9 28.6
17:30 1012 29.88 841 24.83 10.3 50.6 45 -0.9 30.3
17:35 1012 29.88 841 24.83 9.8 49.6 47 -0.9 30.4
17:40 1012 29.88 841 24.83 9.3 48.8 49 -0.9 30.4
17:45 1012 29.88 841 24.83 9 48.1 52 -0.4 31.4
17:50 1013 29.91 842 24.86 8.7 47.6 53 -0.3 31.5
17:55 1013 29.91 842 24.86 8.5 47.3 59 0.9 33.6
18:00 1013 29.91 842 24.86 7.8 46.1 63 1.3 34.3
18:05 1013 29.91 842 24.86 7.4 45.4 62 0.6 33
18:10 1013 29.91 842 24.86 7.2 44.9 64 0.9 33.6
18:15 1013 29.91 842 24.86 7 44.6 67 1.4 34.5
18:20 1013 29.91 842 24.86 7 44.5 68 1.4 34.5
18:25 1013 29.91 842 24.86 7 44.5 68 1.4 34.6
18:30 1013 29.91 842 24.86 6.8 44.3 68 1.4 34.5
18:35 1013 29.91 842 24.86 6.9 44.3 67 1.2 34.2
18:40 1013 29.91 842 24.86 6.8 44.3 67 1.3 34.3
18:45 1013 29.91 842 24.86 6.8 44.2 67 1.1 34
18:50 1013 29.91 842 24.86 6.6 43.9 66 0.8 33.4
18:55 1013 29.91 842 24.86 6.7 44 66 0.7 33.3
19:00 1013 29.91 842 24.86 6.7 44.1 64 0.5 32.9
19:05 1013 29.91 842 24.86 6.8 44.3 64 0.4 32.8
19:10 1013 29.91 842 24.86 6.9 44.5 64 0.6 33.1
19:15 1013 29.91 842 24.86 7 44.5 64 0.5 33
19:20 1013 29.91 842 24.86 6.9 44.5 64 0.5 33
19:25 1013 29.91 842 24.86 6.9 44.4 64 0.5 33
19:30 1013 29.91 842 24.86 6.9 44.3 64 0.5 32.8
19:35 1013 29.91 842 24.86 6.9 44.4 63 0.4 32.7
19:40 1013 29.91 842 24.86 6.8 44.2 65 0.6 33.1
19:45 1013 29.91 842 24.86 6.5 43.7 66 0.6 33.1
19:50 1013 29.91 842 24.86 6.3 43.4 66 0.5 33
19:55 1013 29.91 842 24.86 6.2 43.2 67 0.6 33.1
20:00 1013 29.91 842 24.86 6.1 43 68 0.7 33.3
20:05 1013 29.91 842 24.86 6 42.8 68 0.6 33
20:10 1013 29.91 842 24.86 6.1 43 65 0.1 32.2
20:15 1013 29.91 842 24.86 6.4 43.5 64 0.2 32.3
20:20 1013 29.91 842 24.86 6.3 43.3 66 0.4 32.8
20:25 1013 29.91 842 24.86 5.8 42.5 69 0.5 33
20:30 1013 29.91 842 24.86 5.4 41.7 70 0.4 32.8
20:35 1013 29.91 842 24.86 5.2 41.3 71 0.4 32.7
20:40 1013 29.91 842 24.86 5.1 41.2 71 0.4 32.7
20:45 1013 29.91 842 24.86 4.9 40.9 72 0.4 32.7
20:50 1013 29.91 842 24.86 4.8 40.7 72 0.3 32.5
20:55 1013 29.91 842 24.86 4.8 40.7 73 0.3 32.5
21:00 1013 29.91 842 24.86 4.7 40.4 73 0.2 32.3
21:05 1013 29.91 842 24.86 4.4 40 74 0.2 32.4
21:10 1013 29.91 842 24.86 4.3 39.7 74 0.1 32.1
21:15 1013 29.91 842 24.86 4.3 39.7 74 0 32
21:20 1013 29.91 842 24.86 4.3 39.8 74 0.1 32.1
21:25 1013 29.91 842 24.86 4.4 39.9 74 0.1 32.1
21:30 1013 29.91 842 24.86 4.4 39.9 73 -0 31.9
21:35 1013 29.91 842 24.86 4.6 40.2 71 -0.2 31.7
21:40 1013 29.91 842 24.86 4.7 40.5 72 0 32
21:45 1012 29.88 842 24.86 4.6 40.3 72 0 32
21:50 1012 29.88 842 24.86 4.6 40.2 73 0.2 32.3
21:55 1012 29.88 842 24.86 4.5 40.1 74 0.2 32.3
22:00 1012 29.88 842 24.86 4.4 39.9 74 0.2 32.3
22:05 1012 29.88 842 24.86 4.3 39.8 74 0.2 32.4
22:10 1012 29.88 842 24.86 4.4 39.9 74 0.2 32.3
22:15 1012 29.88 842 24.86 4.4 39.9 75 0.2 32.4
22:20 1012 29.88 842 24.86 4.3 39.7 75 0.2 32.4
22:25 1012 29.88 841 24.83 4.4 39.9 74 0.1 32.2
22:30 1012 29.88 842 24.86 4.5 40.1 73 0.1 32.1
22:35 1012 29.88 842 24.86 4.6 40.3 73 0.2 32.4
22:40 1013 29.91 842 24.86 4.7 40.5 73 0.2 32.4
22:45 1013 29.91 842 24.86 4.4 39.9 76 0.5 32.9
22:50 1013 29.91 842 24.86 4.2 39.5 78 0.6 33.2
22:55 1013 29.91 842 24.86 4.4 39.8 75 0.3 32.6
23:00 1013 29.91 842 24.86 4.9 40.8 75 0.9 33.5
23:05 1013 29.91 842 24.86 5.2 41.3 75 1.2 34.1
23:10 1013 29.91 842 24.86 5.2 41.4 78 1.6 34.9
23:15 1013 29.91 842 24.86 5.3 41.6 78 1.7 35.1
23:20 1013 29.91 842 24.86 5.3 41.5 77 1.6 34.9
23:25 1013 29.91 842 24.86 5.4 41.7 76 1.4 34.6
23:30 1013 29.91 842 24.86 5.6 42.1 76 1.8 35.2
23:35 1013 29.91 842 24.86 5 40.9 80 1.7 35.1
23:40 1013 29.91 842 24.86 4.5 40.2 82 1.7 35
23:45 1013 29.91 842 24.86 4.4 39.9 82 1.7 35
23:50 1013 29.91 842 24.86 4.2 39.5 82 1.4 34.5
23:55 1013 29.91 842 24.86 4.1 39.4 82 1.3 34.3
24:00 1013 29.91 842 24.86 4.2 39.6 81 1.2 34.2